Port Gamble, Washington
Current Conditions -  °F | °C
As of 3:53 AM on Wednesday 28 Jan 2015 (Local Time) from KPAE Reporting Station
Overcast Overcast  
Wind Chill: 45°   Ceiling: 2000
Heat Index: 45°   Visibility: 10mi
Dew Point: 40°   Wind: 3mph
Humidity: 82%   Direction: 60°ENE
Pressure: 30.33"   Gusts: NA
Location:  47.85°N, 122.59°W
Report Text: KPAE 281153Z AUTO 06003KT 10SM SCT015 OVC020 07/04 A3033 RMK AO2 SLP274 60001 70003 T00720044 10072 20067 51012
Loading
Personal Weather Stations






























Interactive Weather Map New forecast layout! Learn more

10-Day Weather Forecast

Advertisements
Track Severe Weather on mobile